createdAt,value
2022-07-29T00:02:26.132Z,101852.19
2022-07-29T00:04:52.668Z,101843.25
2022-07-29T00:07:19.282Z,101840.78
2022-07-29T00:09:51.067Z,101848.69
2022-07-29T00:12:26.325Z,101845.53
2022-07-29T00:14:57.216Z,101839.50
2022-07-29T00:17:24.964Z,101842.16
2022-07-29T00:19:51.575Z,101829.00
2022-07-29T00:22:18.087Z,101832.59
2022-07-29T00:24:46.346Z,101836.53
2022-07-29T00:27:12.718Z,101828.47
2022-07-29T00:29:39.212Z,101825.00
2022-07-29T00:32:05.926Z,101820.44
2022-07-29T00:34:50.944Z,101808.31
2022-07-29T00:37:17.546Z,101811.56
2022-07-29T00:39:44.386Z,101809.59
2022-07-29T00:42:10.960Z,101803.84
2022-07-29T00:44:41.327Z,101801.03
2022-07-29T00:47:09.032Z,101806.09
2022-07-29T00:49:36.034Z,101798.41
2022-07-29T00:52:03.823Z,101802.84
2022-07-29T00:54:30.368Z,101800.50
2022-07-29T00:56:59.922Z,101803.13
2022-07-29T00:59:34.999Z,101800.28
2022-07-29T01:02:05.593Z,101800.28
2022-07-29T01:04:32.881Z,101800.03
2022-07-29T01:07:01.486Z,101799.19
2022-07-29T01:09:45.403Z,101796.56
2022-07-29T01:12:18.806Z,101794.97
2022-07-29T01:14:48.078Z,101789.56
2022-07-29T01:17:34.959Z,101789.78
2022-07-29T01:20:32.129Z,101782.13
2022-07-29T01:23:18.848Z,101782.28
2022-07-29T01:26:03.475Z,101775.34
2022-07-29T01:28:44.642Z,101780.63
2022-07-29T01:31:25.075Z,101771.53
2022-07-29T01:33:58.720Z,101775.38
2022-07-29T01:36:47.987Z,101776.13
2022-07-29T01:39:26.236Z,101779.34
2022-07-29T01:42:14.619Z,101778.50
2022-07-29T01:44:46.550Z,101778.69
2022-07-29T01:47:18.672Z,101779.16
2022-07-29T01:49:52.097Z,101777.28
2022-07-29T01:52:26.964Z,101785.00
2022-07-29T01:54:58.326Z,101781.53
2022-07-29T01:57:32.466Z,101777.19
2022-07-29T02:00:01.792Z,101780.66
2022-07-29T02:02:31.147Z,101781.53
2022-07-29T02:04:58.800Z,101779.81
2022-07-29T02:07:26.244Z,101777.50
2022-07-29T02:09:55.023Z,101777.41
2022-07-29T02:12:23.067Z,101777.50
2022-07-29T02:14:52.525Z,101774.84
2022-07-29T02:17:28.901Z,101780.50
2022-07-29T02:20:02.451Z,101779.06
2022-07-29T02:22:31.952Z,101788.59
2022-07-29T02:24:59.460Z,101778.44
2022-07-29T02:27:29.344Z,101778.81
2022-07-29T02:29:59.068Z,101773.66
2022-07-29T02:32:28.449Z,101779.75
2022-07-29T02:34:56.826Z,101777.19
2022-07-29T02:37:24.787Z,101773.56
2022-07-29T02:39:54.773Z,101767.44
2022-07-29T02:42:23.720Z,101769.22
2022-07-29T02:44:51.261Z,101761.03
2022-07-29T02:47:22.907Z,101758.59
2022-07-29T02:50:10.326Z,101767.31
2022-07-29T02:52:46.111Z,101766.56
2022-07-29T02:55:58.308Z,101770.63
2022-07-29T02:58:38.759Z,101765.66
2022-07-29T03:01:23.907Z,101763.59
2022-07-29T03:03:53.882Z,101767.44
2022-07-29T03:06:28.768Z,101755.31
2022-07-29T03:09:12.536Z,101762.25
2022-07-29T03:11:46.365Z,101756.25
2022-07-29T03:14:21.661Z,101760.69
2022-07-29T03:16:49.359Z,101758.97
2022-07-29T03:19:16.291Z,101755.78
2022-07-29T03:21:42.873Z,101754.94
2022-07-29T03:24:10.776Z,101754.06
2022-07-29T03:26:37.740Z,101759.72
2022-07-29T03:29:04.198Z,101755.22
2022-07-29T03:31:30.675Z,101748.00
2022-07-29T03:33:58.554Z,101743.84
2022-07-29T03:36:25.733Z,101744.44
2022-07-29T03:38:53.096Z,101739.28
2022-07-29T03:41:22.450Z,101740.22
2022-07-29T03:43:50.674Z,101740.31
2022-07-29T03:46:18.809Z,101738.59
2022-07-29T03:48:51.486Z,101730.91
2022-07-29T03:51:18.111Z,101729.13
2022-07-29T03:53:44.543Z,101732.78
2022-07-29T03:56:12.905Z,101729.50
2022-07-29T03:58:40.138Z,101735.69
2022-07-29T04:01:06.877Z,101731.28
2022-07-29T04:03:34.595Z,101733.38
2022-07-29T04:06:06.948Z,101724.63
2022-07-29T04:08:34.708Z,101727.44
2022-07-29T04:11:02.429Z,101731.34
2022-07-29T04:13:28.962Z,101729.00
2022-07-29T04:15:55.419Z,101728.91
2022-07-29T04:18:22.286Z,101727.88
2022-07-29T04:20:48.918Z,101734.47
2022-07-29T04:23:15.622Z,101732.09
2022-07-29T04:25:43.084Z,101727.88
2022-07-29T04:28:10.996Z,101733.91
2022-07-29T04:30:38.338Z,101729.47
2022-07-29T04:33:07.806Z,101729.97
2022-07-29T04:35:47.061Z,101728.09
2022-07-29T04:38:17.360Z,101716.53
2022-07-29T04:40:44.001Z,101717.31
2022-07-29T04:43:10.571Z,101717.31
2022-07-29T04:45:39.175Z,101719.25
2022-07-29T04:48:05.837Z,101728.25
2022-07-29T04:50:32.824Z,101726.84
2022-07-29T04:52:59.649Z,101736.41
2022-07-29T04:55:26.392Z,101733.50
2022-07-29T04:57:52.883Z,101734.16
2022-07-29T05:00:19.420Z,101734.25
2022-07-29T05:02:46.043Z,101735.22
2022-07-29T05:05:12.670Z,101734.25
2022-07-29T05:07:41.698Z,101729.75
2022-07-29T05:10:09.237Z,101735.88
2022-07-29T05:12:35.853Z,101729.97
2022-07-29T05:15:02.341Z,101737.06
2022-07-29T05:17:28.967Z,101730.13
2022-07-29T05:19:55.608Z,101731.63
2022-07-29T05:22:22.758Z,101729.88
2022-07-29T05:24:49.225Z,101737.91
2022-07-29T05:27:15.821Z,101738.00
2022-07-29T05:29:44.153Z,101740.91
2022-07-29T05:32:11.906Z,101738.94
2022-07-29T05:34:38.429Z,101732.94
2022-07-29T05:37:18.725Z,101739.78
2022-07-29T05:39:48.960Z,101740.63
2022-07-29T05:42:17.263Z,101743.44
2022-07-29T05:44:43.824Z,101747.00
2022-07-29T05:47:10.307Z,101749.25
2022-07-29T05:49:36.897Z,101739.22
2022-07-29T05:52:03.944Z,101748.53
2022-07-29T05:54:30.673Z,101752.13
2022-07-29T05:56:57.416Z,101746.84
2022-07-29T05:59:29.838Z,101751.91
2022-07-29T06:01:58.068Z,101756.44
2022-07-29T06:04:25.211Z,101764.97
2022-07-29T06:06:51.823Z,101755.50
2022-07-29T06:09:18.338Z,101758.13
2022-07-29T06:11:44.904Z,101756.25
2022-07-29T06:14:11.451Z,101756.25
2022-07-29T06:16:38.110Z,101753.25
2022-07-29T06:19:05.321Z,101762.69
2022-07-29T06:21:31.872Z,101758.41
2022-07-29T06:23:58.458Z,101760.69
2022-07-29T06:26:30.667Z,101762.31
2022-07-29T06:28:58.531Z,101760.94
2022-07-29T06:31:25.118Z,101770.88
2022-07-29T06:33:51.730Z,101785.75
2022-07-29T06:36:22.861Z,101796.81
2022-07-29T06:38:52.124Z,101792.44
2022-07-29T06:41:19.212Z,101790.16
2022-07-29T06:43:52.450Z,101778.16
2022-07-29T06:46:31.782Z,101796.44
2022-07-29T06:48:58.556Z,101789.09
2022-07-29T06:51:26.162Z,101788.72
2022-07-29T06:53:58.391Z,101793.19
2022-07-29T06:56:29.273Z,101799.19
2022-07-29T06:58:57.207Z,101792.13
2022-07-29T07:01:24.563Z,101788.66
2022-07-29T07:03:51.173Z,101795.31
2022-07-29T07:06:18.106Z,101801.44
2022-07-29T07:08:44.764Z,101795.91
2022-07-29T07:11:11.537Z,101804.16
2022-07-29T07:13:38.074Z,101803.50
2022-07-29T07:16:05.486Z,101801.97
2022-07-29T07:18:32.128Z,101795.75
2022-07-29T07:20:59.215Z,101797.50
2022-07-29T07:23:25.903Z,101796.06
2022-07-29T07:25:53.848Z,101801.78
2022-07-29T07:28:24.762Z,101798.44
2022-07-29T07:30:51.983Z,101794.66
2022-07-29T07:33:18.639Z,101792.97
2022-07-29T07:35:45.367Z,101783.00
2022-07-29T07:38:12.049Z,101792.38
2022-07-29T07:40:38.563Z,101794.50
2022-07-29T07:43:05.253Z,101785.00
2022-07-29T07:45:33.875Z,101779.00
2022-07-29T07:48:00.930Z,101772.09
2022-07-29T07:50:27.628Z,101771.34
2022-07-29T07:52:59.041Z,101779.25
2022-07-29T07:55:26.887Z,101783.47
2022-07-29T07:57:54.059Z,101783.47
2022-07-29T08:00:23.055Z,101778.09
2022-07-29T08:02:51.154Z,101779.53
2022-07-29T08:05:19.050Z,101767.84
2022-07-29T08:07:47.570Z,101767.22
2022-07-29T08:10:36.881Z,101772.91
2022-07-29T08:13:07.997Z,101770.69
2022-07-29T08:15:34.961Z,101772.50
2022-07-29T08:18:06.563Z,101766.50
2022-07-29T08:20:36.546Z,101766.81
2022-07-29T08:23:03.850Z,101761.97
2022-07-29T08:25:30.480Z,101765.19
2022-07-29T08:28:00.089Z,101763.59
2022-07-29T08:30:27.025Z,101768.88
2022-07-29T08:32:55.247Z,101775.53
2022-07-29T08:35:24.221Z,101774.31
2022-07-29T08:37:51.650Z,101776.91
2022-07-29T08:40:18.439Z,101778.56
2022-07-29T08:42:45.267Z,101785.50
2022-07-29T08:45:11.809Z,101784.97
2022-07-29T08:47:43.069Z,101781.28
2022-07-29T08:50:10.991Z,101790.16
2022-07-29T08:52:39.510Z,101775.81
2022-07-29T08:55:11.221Z,101772.41
2022-07-29T08:57:40.056Z,101777.41
2022-07-29T09:00:19.243Z,101774.13
2022-07-29T09:02:52.768Z,101784.44
2022-07-29T09:05:20.189Z,101783.38
2022-07-29T09:07:48.905Z,101778.72
2022-07-29T09:10:15.699Z,101787.75
2022-07-29T09:12:42.671Z,101783.34
2022-07-29T09:15:09.294Z,101788.88
2022-07-29T09:17:50.275Z,101781.16
2022-07-29T09:20:20.305Z,101772.75
2022-07-29T09:22:51.739Z,101767.28
2022-07-29T09:25:34.550Z,101772.56
2022-07-29T09:28:11.776Z,101769.66
2022-07-29T09:30:56.131Z,101773.19
2022-07-29T09:33:24.309Z,101776.66
2022-07-29T09:36:13.207Z,101776.91
2022-07-29T09:38:39.834Z,101778.00
2022-07-29T09:41:08.998Z,101778.81
2022-07-29T09:43:35.777Z,101773.50
2022-07-29T09:46:13.142Z,101775.56
2022-07-29T09:48:40.455Z,101773.88
2022-07-29T09:51:20.604Z,101762.06
2022-07-29T09:53:48.829Z,101762.22
2022-07-29T09:56:15.437Z,101758.69
2022-07-29T09:58:41.882Z,101760.75
2022-07-29T10:01:08.496Z,101762.44
2022-07-29T10:03:52.204Z,101766.91
2022-07-29T10:06:18.932Z,101767.50
2022-07-29T10:08:45.621Z,101759.91
2022-07-29T10:11:19.045Z,101767.28
2022-07-29T10:13:48.012Z,101774.13
2022-07-29T10:16:16.030Z,101769.91
2022-07-29T10:18:44.813Z,101774.34
2022-07-29T10:21:22.641Z,101776.88
2022-07-29T10:24:14.929Z,101778.09
2022-07-29T10:26:42.672Z,101770.63
2022-07-29T10:29:09.078Z,101765.56
2022-07-29T10:31:59.226Z,101774.63
2022-07-29T10:34:50.604Z,101765.94
2022-07-29T10:37:46.753Z,101770.06
2022-07-29T10:40:45.781Z,101758.84
2022-07-29T10:43:30.369Z,101769.47
2022-07-29T10:46:00.945Z,101763.94
2022-07-29T10:48:30.915Z,101760.81
2022-07-29T10:51:05.142Z,101760.69
2022-07-29T10:53:51.204Z,101763.97
2022-07-29T10:56:38.123Z,101763.47
2022-07-29T10:59:21.517Z,101768.03
2022-07-29T11:04:45.229Z,101770.69
2022-07-29T11:07:13.648Z,101765.16
2022-07-29T11:09:41.937Z,101759.41
2022-07-29T11:12:38.777Z,101763.09
2022-07-29T11:15:09.424Z,101760.56
2022-07-29T11:17:54.272Z,101760.50
2022-07-29T11:20:40.572Z,101771.13
2022-07-29T11:23:20.888Z,101763.44
2022-07-29T11:26:23.401Z,101758.44
2022-07-29T11:29:07.157Z,101767.91
2022-07-29T11:31:39.437Z,101765.50
2022-07-29T11:34:28.205Z,101767.50
2022-07-29T11:37:14.323Z,101759.66
2022-07-29T11:40:01.487Z,101763.38
2022-07-29T11:45:43.218Z,101754.31
2022-07-29T11:48:27.841Z,101760.59
2022-07-29T11:50:58.637Z,101754.88
2022-07-29T11:53:25.727Z,101754.59
2022-07-29T11:55:58.358Z,101755.31
2022-07-29T11:58:26.153Z,101760.19
2022-07-29T12:00:55.674Z,101758.22
2022-07-29T12:03:35.157Z,101765.13
2022-07-29T12:06:04.094Z,101766.91
2022-07-29T12:08:30.665Z,101765.78
2022-07-29T12:10:57.103Z,101761.34
2022-07-29T12:13:31.192Z,101759.63
2022-07-29T12:16:05.315Z,101766.19
2022-07-29T12:18:32.151Z,101764.78
2022-07-29T12:21:05.688Z,101759.13
2022-07-29T12:23:34.346Z,101766.97
2022-07-29T12:26:05.492Z,101756.84
2022-07-29T12:28:39.193Z,101754.69
2022-07-29T12:31:05.888Z,101767.91
2022-07-29T12:33:32.404Z,101758.47
2022-07-29T12:36:11.764Z,101760.47
2022-07-29T12:38:43.990Z,101759.25
2022-07-29T12:41:11.519Z,101768.50
2022-07-29T12:43:37.969Z,101762.00
2022-07-29T12:46:15.778Z,101764.53
2022-07-29T12:48:44.086Z,101763.63
2022-07-29T12:51:12.739Z,101767.81
2022-07-29T12:53:39.551Z,101761.78
2022-07-29T12:56:20.559Z,101756.47
2022-07-29T12:58:51.177Z,101754.63
2022-07-29T13:01:20.336Z,101747.06
2022-07-29T13:03:57.318Z,101753.28
2022-07-29T13:06:41.767Z,101752.25
2022-07-29T13:09:18.556Z,101756.19
2022-07-29T13:11:48.838Z,101756.53
2022-07-29T13:14:36.745Z,101753.53
2022-07-29T13:17:14.675Z,101749.25
2022-07-29T13:19:49.381Z,101748.13
2022-07-29T13:22:18.312Z,101750.88
2022-07-29T13:24:56.264Z,101747.38
2022-07-29T13:27:25.266Z,101751.28
2022-07-29T13:29:53.311Z,101746.81
2022-07-29T13:32:27.693Z,101749.50
2022-07-29T13:34:59.749Z,101742.16
2022-07-29T13:37:27.247Z,101747.72
2022-07-29T13:39:54.982Z,101749.28
2022-07-29T13:42:25.691Z,101747.84
2022-07-29T13:44:52.712Z,101746.03
2022-07-29T13:47:20.759Z,101744.44
2022-07-29T13:49:49.506Z,101750.28
2022-07-29T13:52:16.665Z,101748.06
2022-07-29T13:54:44.173Z,101746.47
2022-07-29T13:57:11.998Z,101738.44
2022-07-29T13:59:40.017Z,101746.09
2022-07-29T14:02:06.790Z,101746.94
2022-07-29T14:04:34.461Z,101747.63
2022-07-29T14:07:03.560Z,101743.06
2022-07-29T14:09:30.638Z,101739.41
2022-07-29T14:12:08.534Z,101742.75
2022-07-29T14:14:36.468Z,101739.34
2022-07-29T14:17:04.179Z,101738.72
2022-07-29T14:19:32.810Z,101735.28
2022-07-29T14:21:59.698Z,101740.59
2022-07-29T14:24:26.350Z,101742.06
2022-07-29T14:26:52.805Z,101735.41
2022-07-29T14:29:19.252Z,101737.41
2022-07-29T14:31:45.777Z,101736.75
2022-07-29T14:34:12.242Z,101739.41
2022-07-29T14:36:38.718Z,101742.31
2022-07-29T14:39:05.106Z,101731.53
2022-07-29T14:41:31.609Z,101746.66
2022-07-29T14:43:58.719Z,101743.69
2022-07-29T14:46:25.195Z,101746.50
2022-07-29T14:48:51.643Z,101748.84
2022-07-29T14:51:18.327Z,101744.47
2022-07-29T14:53:44.865Z,101746.38
2022-07-29T14:56:35.409Z,101743.94
2022-07-29T14:58:58.483Z,101745.16
2022-07-29T15:01:25.730Z,101746.56
2022-07-29T15:03:55.783Z,101747.28
2022-07-29T15:06:26.131Z,101738.84
2022-07-29T15:08:52.708Z,101738.56
2022-07-29T15:11:19.072Z,101748.03
2022-07-29T15:13:45.491Z,101741.53
2022-07-29T15:16:11.956Z,101738.31
2022-07-29T15:18:39.263Z,101743.22
2022-07-29T15:21:07.793Z,101744.19
2022-07-29T15:23:37.117Z,101750.25
2022-07-29T15:26:04.756Z,101745.28
2022-07-29T15:28:31.159Z,101748.72
2022-07-29T15:30:57.836Z,101742.97
2022-07-29T15:33:24.190Z,101742.69
2022-07-29T15:35:50.595Z,101746.25
2022-07-29T15:38:17.507Z,101741.09
2022-07-29T15:40:44.597Z,101738.88
2022-07-29T15:43:11.067Z,101742.19
2022-07-29T15:45:40.546Z,101744.44
2022-07-29T15:48:08.988Z,101736.38
2022-07-29T15:50:35.784Z,101734.00
2022-07-29T15:53:04.941Z,101737.72
2022-07-29T15:55:31.357Z,101732.09
2022-07-29T15:58:00.647Z,101738.50
2022-07-29T16:00:27.370Z,101728.78
2022-07-29T16:02:53.757Z,101726.97
2022-07-29T16:05:20.222Z,101740.28
2022-07-29T16:07:46.633Z,101730.84
2022-07-29T16:10:13.115Z,101731.59
2022-07-29T16:12:39.503Z,101729.72
2022-07-29T16:15:09.887Z,101732.59
2022-07-29T16:17:37.655Z,101730.78
2022-07-29T16:20:06.035Z,101733.44
2022-07-29T16:22:32.631Z,101733.66
2022-07-29T16:24:59.099Z,101736.66
2022-07-29T16:27:35.525Z,101737.91
2022-07-29T16:30:07.967Z,101737.41
2022-07-29T16:32:34.541Z,101741.44
2022-07-29T16:35:02.672Z,101741.22
2022-07-29T16:37:35.327Z,101742.47
2022-07-29T16:40:02.528Z,101738.56
2022-07-29T16:42:45.385Z,101736.44
2022-07-29T16:45:13.141Z,101740.16
2022-07-29T16:47:40.597Z,101737.94
2022-07-29T16:50:07.830Z,101737.53
2022-07-29T16:52:34.353Z,101740.44
2022-07-29T16:55:00.792Z,101740.81
2022-07-29T16:57:27.331Z,101733.31
2022-07-29T16:59:53.855Z,101740.06
2022-07-29T17:02:20.433Z,101740.66
2022-07-29T17:04:47.103Z,101748.25
2022-07-29T17:07:14.192Z,101739.72
2022-07-29T17:09:41.076Z,101740.03
2022-07-29T17:12:07.821Z,101746.34
2022-07-29T17:14:34.256Z,101733.06
2022-07-29T17:17:02.539Z,101734.63
2022-07-29T17:19:31.540Z,101738.94
2022-07-29T17:22:06.462Z,101745.97
2022-07-29T17:24:35.675Z,101746.25
2022-07-29T17:27:02.181Z,101739.94
2022-07-29T17:29:28.762Z,101747.09
2022-07-29T17:31:55.484Z,101737.31
2022-07-29T17:34:21.887Z,101743.63
2022-07-29T17:36:48.302Z,101740.53
2022-07-29T17:39:14.779Z,101749.25
2022-07-29T17:41:41.286Z,101748.84
2022-07-29T17:44:10.588Z,101748.44
2022-07-29T17:46:40.455Z,101757.09
2022-07-29T17:49:07.355Z,101755.72
2022-07-29T17:51:34.030Z,101766.34
2022-07-29T17:54:00.460Z,101764.13
2022-07-29T17:56:27.074Z,101758.25
2022-07-29T17:58:54.122Z,101759.63
2022-07-29T18:01:20.890Z,101757.09
2022-07-29T18:03:47.485Z,101756.78
2022-07-29T18:06:14.136Z,101760.28
2022-07-29T18:08:43.092Z,101753.06
2022-07-29T18:11:09.572Z,101755.84
2022-07-29T18:13:41.690Z,101759.94
2022-07-29T18:16:09.349Z,101756.56
2022-07-29T18:18:35.924Z,101761.47
2022-07-29T18:21:03.339Z,101758.94
2022-07-29T18:23:30.140Z,101757.28
2022-07-29T18:25:56.767Z,101761.59
2022-07-29T18:28:23.308Z,101762.38
2022-07-29T18:30:50.356Z,101767.91
2022-07-29T18:33:22.102Z,101766.25
2022-07-29T18:35:50.555Z,101769.81
2022-07-29T18:38:17.613Z,101776.72
2022-07-29T18:40:45.644Z,101778.38
2022-07-29T18:43:12.915Z,101779.03
2022-07-29T18:45:39.787Z,101780.75
2022-07-29T18:48:08.388Z,101779.34
2022-07-29T18:50:39.776Z,101776.94
2022-07-29T18:53:06.215Z,101775.41
2022-07-29T18:55:33.008Z,101778.03
2022-07-29T18:58:02.000Z,101775.59
2022-07-29T19:00:28.648Z,101774.13
2022-07-29T19:02:58.256Z,101785.16
2022-07-29T19:05:24.954Z,101782.22
2022-07-29T19:07:51.649Z,101784.69
2022-07-29T19:10:18.235Z,101790.56
2022-07-29T19:12:44.724Z,101785.06
2022-07-29T19:15:20.012Z,101800.69
2022-07-29T19:17:48.031Z,101793.41
2022-07-29T19:20:15.689Z,101798.06
2022-07-29T19:25:10.995Z,101809.91
2022-07-29T19:27:37.519Z,101807.00
2022-07-29T19:30:09.315Z,101814.78
2022-07-29T19:32:36.832Z,101815.53
2022-07-29T19:35:28.295Z,101819.81
2022-07-29T19:37:58.944Z,101823.19
2022-07-29T19:40:26.438Z,101823.94
2022-07-29T19:42:53.773Z,101825.44
2022-07-29T19:45:21.666Z,101830.97
2022-07-29T19:47:48.419Z,101838.09
2022-07-29T19:50:16.370Z,101834.97
2022-07-29T19:52:44.052Z,101843.31
2022-07-29T19:55:10.576Z,101846.09
2022-07-29T19:57:41.173Z,101848.28
2022-07-29T20:00:11.245Z,101852.28
2022-07-29T20:02:39.625Z,101844.56
2022-07-29T20:05:07.093Z,101853.41
2022-07-29T20:07:34.313Z,101857.28
2022-07-29T20:10:04.274Z,101857.28
2022-07-29T20:12:30.745Z,101861.41
2022-07-29T20:14:57.852Z,101858.88
2022-07-29T20:17:24.560Z,101865.03
2022-07-29T20:19:51.806Z,101856.81
2022-07-29T20:22:20.875Z,101865.63
2022-07-29T20:24:50.939Z,101864.06
2022-07-29T20:27:18.238Z,101866.22
2022-07-29T20:29:44.732Z,101859.38
2022-07-29T20:32:12.387Z,101867.91
2022-07-29T20:34:42.472Z,101868.91
2022-07-29T20:37:14.653Z,101867.91
2022-07-29T20:39:42.682Z,101865.88
2022-07-29T20:42:09.235Z,101876.47
2022-07-29T20:44:36.749Z,101866.59
2022-07-29T20:47:03.463Z,101864.88
2022-07-29T20:49:30.163Z,101869.84
2022-07-29T20:51:56.851Z,101860.72
2022-07-29T20:54:23.330Z,101871.66
2022-07-29T20:56:49.970Z,101869.88
2022-07-29T20:59:17.727Z,101869.72
2022-07-29T21:01:44.494Z,101879.00
2022-07-29T21:04:11.037Z,101876.59
2022-07-29T21:06:37.538Z,101886.69
2022-07-29T21:09:04.191Z,101883.09
2022-07-29T21:11:44.747Z,101883.34
2022-07-29T21:14:30.904Z,101887.03
2022-07-29T21:16:57.565Z,101895.06
2022-07-29T21:19:24.167Z,101896.78
2022-07-29T21:21:53.089Z,101895.06
2022-07-29T21:24:19.715Z,101900.56
2022-07-29T21:27:04.780Z,101893.94
2022-07-29T21:29:32.777Z,101901.75
2022-07-29T21:31:59.253Z,101896.06
2022-07-29T21:34:27.951Z,101890.53
2022-07-29T21:36:54.486Z,101885.34
2022-07-29T21:39:21.012Z,101892.22
2022-07-29T21:41:47.557Z,101892.22
2022-07-29T21:44:13.984Z,101881.28
2022-07-29T21:46:40.467Z,101886.91
2022-07-29T21:49:07.055Z,101883.91
2022-07-29T21:51:34.705Z,101883.16
2022-07-29T21:54:01.184Z,101893.25
2022-07-29T21:56:29.447Z,101887.09
2022-07-29T21:58:57.940Z,101882.53
2022-07-29T22:01:24.550Z,101877.63
2022-07-29T22:03:51.004Z,101873.06
2022-07-29T22:06:18.399Z,101874.03
2022-07-29T22:08:45.630Z,101879.53
2022-07-29T22:11:13.001Z,101877.22
2022-07-29T22:13:41.792Z,101879.97
2022-07-29T22:16:10.087Z,101869.66
2022-07-29T22:18:36.536Z,101875.16
2022-07-29T22:21:02.976Z,101875.28
2022-07-29T22:23:29.592Z,101875.84
2022-07-29T22:25:56.073Z,101866.59
2022-07-29T22:28:22.653Z,101871.88
2022-07-29T22:30:49.210Z,101876.72
2022-07-29T22:33:17.881Z,101878.28
2022-07-29T22:35:44.805Z,101875.41
2022-07-29T22:38:11.287Z,101873.63
2022-07-29T22:40:37.737Z,101871.81
2022-07-29T22:43:04.997Z,101877.00
2022-07-29T22:45:31.518Z,101872.97
2022-07-29T22:47:59.045Z,101878.97
2022-07-29T22:50:26.422Z,101881.06
2022-07-29T22:52:52.895Z,101874.44
2022-07-29T22:55:19.383Z,101876.88
2022-07-29T22:57:45.861Z,101888.09
2022-07-29T23:00:13.517Z,101887.34
2022-07-29T23:02:41.342Z,101881.00
2022-07-29T23:05:08.918Z,101881.00
2022-07-29T23:07:35.367Z,101875.72
2022-07-29T23:10:02.034Z,101879.13
2022-07-29T23:12:28.439Z,101884.84
2022-07-29T23:14:54.861Z,101886.31
2022-07-29T23:17:21.306Z,101879.38
2022-07-29T23:19:47.810Z,101886.22
2022-07-29T23:22:14.300Z,101886.72
2022-07-29T23:24:41.397Z,101882.31
2022-07-29T23:27:08.600Z,101885.16
2022-07-29T23:29:36.747Z,101881.78
2022-07-29T23:32:03.772Z,101880.75
2022-07-29T23:34:30.206Z,101878.31
2022-07-29T23:36:56.653Z,101884.41
2022-07-29T23:39:23.139Z,101881.78
2022-07-29T23:41:49.663Z,101884.56
2022-07-29T23:44:16.134Z,101886.47
2022-07-29T23:46:43.099Z,101884.84
2022-07-29T23:49:09.607Z,101883.72
2022-07-29T23:51:36.079Z,101885.53
2022-07-29T23:54:02.659Z,101882.97
2022-07-29T23:56:29.180Z,101887.03
2022-07-29T23:58:55.826Z,101879.34
